createdAt,value
2018-09-06T00:01:58.468Z,57.96
2018-09-06T00:04:27.576Z,57.97
2018-09-06T00:06:56.686Z,58.32
2018-09-06T00:09:25.795Z,58.45
2018-09-06T00:11:54.904Z,58.53
2018-09-06T00:14:24.034Z,58.48
2018-09-06T00:16:53.173Z,58.85
2018-09-06T00:19:22.352Z,58.77
2018-09-06T00:21:51.525Z,58.39
2018-09-06T00:24:20.673Z,58.42
2018-09-06T00:26:49.837Z,58.58
2018-09-06T00:29:18.979Z,58.63
2018-09-06T00:31:48.047Z,58.94
2018-09-06T00:34:17.138Z,58.83
2018-09-06T00:36:46.370Z,59.17
2018-09-06T00:39:15.693Z,59.14
2018-09-06T00:41:44.784Z,59.23
2018-09-06T00:44:13.926Z,59.35
2018-09-06T00:46:43.121Z,59.52
2018-09-06T00:49:12.270Z,59.56
2018-09-06T00:51:41.394Z,59.68
2018-09-06T00:54:10.525Z,59.74
2018-09-06T00:56:39.680Z,59.96
2018-09-06T00:59:08.852Z,60.16
2018-09-06T01:01:44.249Z,59.98
2018-09-06T01:04:13.426Z,60.18
2018-09-06T01:06:42.603Z,59.99
2018-09-06T01:09:11.744Z,60.40
2018-09-06T01:11:40.886Z,60.46
2018-09-06T01:14:10.043Z,60.68
2018-09-06T01:16:39.155Z,60.64
2018-09-06T01:19:08.363Z,60.80
2018-09-06T01:21:37.475Z,61.11
2018-09-06T01:24:07.099Z,61.37
2018-09-06T01:26:36.242Z,61.57
2018-09-06T01:29:05.388Z,61.66
2018-09-06T01:31:34.538Z,61.83
2018-09-06T01:34:03.634Z,61.79
2018-09-06T01:36:38.123Z,62.00
2018-09-06T01:39:10.137Z,62.03
2018-09-06T01:41:39.233Z,62.02
2018-09-06T01:44:08.313Z,61.98
2018-09-06T01:46:38.408Z,62.23
2018-09-06T01:49:08.354Z,62.32
2018-09-06T01:51:37.559Z,62.45
2018-09-06T01:54:06.659Z,62.80
2018-09-06T01:56:35.814Z,62.63
2018-09-06T01:59:05.023Z,62.90
2018-09-06T02:01:34.171Z,63.02
2018-09-06T02:04:03.280Z,63.26
2018-09-06T02:06:32.381Z,62.85
2018-09-06T02:09:01.512Z,63.15
2018-09-06T02:11:30.607Z,63.13
2018-09-06T02:13:59.688Z,63.24
2018-09-06T02:16:28.834Z,63.32
2018-09-06T02:18:57.955Z,63.69
2018-09-06T02:21:27.107Z,63.57
2018-09-06T02:23:56.308Z,63.62
2018-09-06T02:26:25.398Z,63.85
2018-09-06T02:28:54.540Z,64.13
2018-09-06T02:31:23.682Z,64.24
2018-09-06T02:33:52.906Z,64.08
2018-09-06T02:36:22.061Z,64.24
2018-09-06T02:38:51.274Z,64.78
2018-09-06T02:41:20.447Z,64.99
2018-09-06T02:43:49.574Z,64.98
2018-09-06T02:46:18.763Z,64.93
2018-09-06T02:48:47.887Z,65.18
2018-09-06T02:51:19.306Z,64.99
2018-09-06T02:53:48.475Z,65.63
2018-09-06T02:56:18.276Z,66.03
2018-09-06T02:58:47.482Z,66.00
2018-09-06T03:01:16.633Z,65.77
2018-09-06T03:03:45.750Z,66.18
2018-09-06T03:06:14.928Z,66.81
2018-09-06T03:08:43.981Z,66.90
2018-09-06T03:11:18.292Z,66.90
2018-09-06T03:13:47.476Z,67.48
2018-09-06T03:16:16.685Z,67.20
2018-09-06T03:18:45.808Z,67.86
2018-09-06T03:21:14.980Z,68.10
2018-09-06T03:23:44.229Z,67.90
2018-09-06T03:26:20.212Z,68.17
2018-09-06T03:28:51.034Z,68.09
2018-09-06T03:31:20.136Z,67.99
2018-09-06T03:33:49.227Z,67.91
2018-09-06T03:36:18.374Z,68.42
2018-09-06T03:38:47.468Z,68.94
2018-09-06T03:41:16.573Z,68.96
2018-09-06T03:43:45.726Z,68.75
2018-09-06T03:46:14.854Z,68.73
2018-09-06T03:48:43.980Z,69.01
2018-09-06T03:51:13.156Z,69.19
2018-09-06T03:53:42.321Z,69.27
2018-09-06T03:56:11.460Z,68.96
2018-09-06T03:58:40.618Z,69.34
2018-09-06T04:01:09.791Z,69.50
2018-09-06T04:03:38.974Z,69.60
2018-09-06T04:06:08.093Z,69.62
2018-09-06T04:08:37.229Z,70.08
2018-09-06T04:11:06.435Z,69.97
2018-09-06T04:13:35.581Z,70.13
2018-09-06T04:16:04.720Z,70.24
2018-09-06T04:18:33.931Z,70.25
2018-09-06T04:21:03.131Z,70.15
2018-09-06T04:23:32.361Z,70.21
2018-09-06T04:26:01.587Z,70.30
2018-09-06T04:28:30.708Z,70.35
2018-09-06T04:30:59.895Z,70.58
2018-09-06T04:33:29.059Z,70.94
2018-09-06T04:35:58.203Z,70.63
2018-09-06T04:38:27.346Z,70.70
2018-09-06T04:40:56.504Z,70.69
2018-09-06T04:43:25.677Z,70.62
2018-09-06T04:45:54.847Z,70.43
2018-09-06T04:48:23.976Z,70.38
2018-09-06T04:50:53.123Z,70.38
2018-09-06T04:53:22.311Z,70.62
2018-09-06T04:55:51.603Z,70.70
2018-09-06T04:58:20.791Z,70.57
2018-09-06T05:00:49.933Z,70.36
2018-09-06T05:03:28.717Z,70.08
2018-09-06T05:05:57.865Z,70.06
2018-09-06T05:08:34.302Z,69.43
2018-09-06T05:11:03.604Z,69.48
2018-09-06T05:13:32.775Z,69.17
2018-09-06T05:16:01.944Z,68.84
2018-09-06T05:18:31.106Z,68.97
2018-09-06T05:21:00.284Z,68.51
2018-09-06T05:23:29.482Z,68.35
2018-09-06T05:25:58.630Z,68.26
2018-09-06T05:28:27.791Z,67.86
2018-09-06T05:30:57.008Z,67.74
2018-09-06T05:33:26.141Z,67.96
2018-09-06T05:35:55.353Z,67.09
2018-09-06T05:38:24.488Z,66.88
2018-09-06T05:40:53.611Z,66.50
2018-09-06T05:43:22.745Z,66.24
2018-09-06T05:45:51.944Z,66.14
2018-09-06T05:48:21.115Z,65.99
2018-09-06T05:50:50.216Z,65.69
2018-09-06T05:53:19.404Z,65.18
2018-09-06T05:55:48.541Z,65.31
2018-09-06T05:58:17.659Z,64.94
2018-09-06T06:00:48.163Z,64.84
2018-09-06T06:03:17.346Z,64.62
2018-09-06T06:05:46.493Z,64.29
2018-09-06T06:08:32.929Z,63.77
2018-09-06T06:11:02.088Z,63.27
2018-09-06T06:13:31.213Z,62.67
2018-09-06T06:16:00.466Z,61.90
2018-09-06T06:18:29.549Z,61.40
2018-09-06T06:20:58.737Z,61.38
2018-09-06T06:23:27.926Z,61.25
2018-09-06T06:25:57.096Z,61.00
2018-09-06T06:28:26.405Z,60.40
2018-09-06T06:30:55.579Z,60.10
2018-09-06T06:33:24.774Z,60.01
2018-09-06T06:35:53.914Z,59.24
2018-09-06T06:38:23.020Z,58.81
2018-09-06T06:40:52.201Z,58.38
2018-09-06T06:43:21.409Z,58.27
2018-09-06T06:45:50.602Z,58.19
2018-09-06T06:48:19.760Z,57.59
2018-09-06T06:50:48.934Z,57.34
2018-09-06T06:53:18.145Z,57.12
2018-09-06T06:55:47.350Z,56.79
2018-09-06T06:58:16.516Z,56.02
2018-09-06T07:00:45.673Z,55.56
2018-09-06T07:03:15.359Z,55.97
2018-09-06T07:05:44.696Z,54.25
2018-09-06T07:08:13.797Z,53.22
2018-09-06T07:10:42.982Z,53.05
2018-09-06T07:13:12.518Z,52.92
2018-09-06T07:15:41.629Z,52.87
2018-09-06T07:18:10.830Z,52.54
2018-09-06T07:20:39.970Z,52.16
2018-09-06T07:23:09.154Z,51.67
2018-09-06T07:25:38.376Z,51.61
2018-09-06T07:28:07.578Z,52.18
2018-09-06T07:30:36.928Z,52.10
2018-09-06T07:33:06.103Z,51.90
2018-09-06T07:35:35.328Z,51.37
2018-09-06T07:38:04.685Z,51.58
2018-09-06T07:40:33.820Z,50.43
2018-09-06T07:43:03.992Z,51.31
2018-09-06T07:45:33.168Z,50.50
2018-09-06T07:48:02.356Z,49.54
2018-09-06T07:50:31.657Z,48.86
2018-09-06T07:53:00.878Z,48.12
2018-09-06T07:55:30.003Z,48.47
2018-09-06T07:57:59.160Z,47.81
2018-09-06T08:00:28.321Z,47.62
2018-09-06T08:02:57.580Z,47.45
2018-09-06T08:05:26.750Z,46.98
2018-09-06T08:07:55.904Z,46.89
2018-09-06T08:10:25.092Z,46.78
2018-09-06T08:12:54.188Z,45.94
2018-09-06T08:15:23.301Z,45.95
2018-09-06T08:17:52.489Z,45.68
2018-09-06T08:20:21.646Z,46.09
2018-09-06T08:22:50.809Z,45.85
2018-09-06T08:25:19.947Z,44.88
2018-09-06T08:27:49.142Z,44.86
2018-09-06T08:30:18.346Z,44.14
2018-09-06T08:32:47.477Z,43.83
2018-09-06T08:35:16.623Z,44.10
2018-09-06T08:37:45.818Z,43.57
2018-09-06T08:40:14.960Z,43.78
2018-09-06T08:42:44.150Z,42.95
2018-09-06T08:45:13.505Z,42.66
2018-09-06T08:47:42.752Z,42.03
2018-09-06T08:50:11.916Z,42.59
2018-09-06T08:52:41.103Z,42.79
2018-09-06T08:55:10.386Z,42.38
2018-09-06T08:57:39.517Z,41.67
2018-09-06T09:00:08.663Z,41.78
2018-09-06T09:02:37.783Z,41.29
2018-09-06T09:05:07.057Z,40.66
2018-09-06T09:07:36.309Z,40.31
2018-09-06T09:10:05.902Z,40.29
2018-09-06T09:12:35.142Z,39.26
2018-09-06T09:15:04.232Z,39.14
2018-09-06T09:17:33.375Z,38.56
2018-09-06T09:20:02.535Z,35.13
2018-09-06T09:22:31.862Z,30.93
2018-09-06T09:25:01.021Z,28.67
2018-09-06T09:27:30.213Z,27.61
2018-09-06T09:29:59.332Z,26.55
2018-09-06T09:32:28.500Z,26.62
2018-09-06T09:34:57.797Z,25.72
2018-09-06T09:37:26.979Z,26.66
2018-09-06T09:39:56.141Z,26.02
2018-09-06T09:42:25.297Z,25.40
2018-09-06T09:44:54.436Z,26.09
2018-09-06T09:49:52.344Z,26.15
2018-09-06T09:52:23.036Z,25.12
2018-09-06T09:54:52.344Z,25.12
2018-09-06T09:57:21.471Z,24.50
2018-09-06T09:59:50.571Z,25.30
2018-09-06T10:02:25.077Z,24.44
2018-09-06T10:05:00.385Z,25.45
2018-09-06T10:07:34.998Z,25.20
2018-09-06T10:10:04.171Z,24.80
2018-09-06T10:12:33.275Z,25.27
2018-09-06T10:15:02.456Z,24.96
2018-09-06T10:17:31.641Z,24.89
2018-09-06T10:20:00.763Z,25.55
2018-09-06T10:22:29.913Z,25.02
2018-09-06T10:24:59.169Z,25.12
2018-09-06T10:27:28.332Z,25.00
2018-09-06T10:29:57.498Z,25.52
2018-09-06T10:32:26.691Z,25.49
2018-09-06T10:34:55.900Z,25.45
2018-09-06T10:37:25.439Z,24.91
2018-09-06T10:39:54.675Z,25.02
2018-09-06T10:42:23.753Z,25.67
2018-09-06T10:44:52.942Z,26.70
2018-09-06T10:47:22.150Z,25.29
2018-09-06T10:49:51.356Z,25.20
2018-09-06T10:52:20.528Z,25.91
2018-09-06T10:54:49.678Z,25.47
2018-09-06T10:57:18.840Z,26.52
2018-09-06T10:59:48.023Z,25.78
2018-09-06T11:02:17.189Z,25.40
2018-09-06T11:04:46.307Z,24.82
2018-09-06T11:07:15.534Z,24.58
2018-09-06T11:09:44.731Z,25.31
2018-09-06T11:12:13.886Z,25.64
2018-09-06T11:14:43.038Z,25.35
2018-09-06T11:17:12.231Z,26.13
2018-09-06T11:19:41.376Z,27.36
2018-09-06T11:22:10.863Z,28.05
2018-09-06T11:24:39.857Z,28.49
2018-09-06T11:27:08.968Z,28.64
2018-09-06T11:29:38.124Z,29.26
2018-09-06T11:32:07.767Z,28.66
2018-09-06T11:34:36.951Z,29.23
2018-09-06T11:37:06.104Z,29.00
2018-09-06T11:39:35.244Z,28.64
2018-09-06T11:42:04.388Z,28.05
2018-09-06T11:44:33.515Z,27.77
2018-09-06T11:47:02.841Z,28.25
2018-09-06T11:49:32.076Z,28.56
2018-09-06T11:52:01.218Z,28.82
2018-09-06T11:54:30.424Z,28.36
2018-09-06T11:56:59.590Z,28.65
2018-09-06T11:59:28.761Z,28.58
2018-09-06T12:01:57.997Z,28.31
2018-09-06T12:04:27.098Z,27.93
2018-09-06T12:06:56.194Z,28.82
2018-09-06T12:09:25.455Z,29.20
2018-09-06T12:11:54.586Z,29.51
2018-09-06T12:14:23.788Z,28.82
2018-09-06T12:16:52.966Z,28.54
2018-09-06T12:19:22.213Z,28.86
2018-09-06T12:21:51.421Z,29.70
2018-09-06T12:24:20.739Z,29.95
2018-09-06T12:26:49.836Z,29.24
2018-09-06T12:29:18.988Z,28.80
2018-09-06T12:31:48.166Z,29.34
2018-09-06T12:34:17.335Z,28.35
2018-09-06T12:36:46.521Z,27.81
2018-09-06T12:39:15.668Z,28.58
2018-09-06T12:41:44.841Z,28.16
2018-09-06T12:44:13.974Z,27.61
2018-09-06T12:46:43.120Z,27.90
2018-09-06T12:49:12.312Z,28.87
2018-09-06T12:51:41.480Z,29.45
2018-09-06T12:54:10.607Z,29.02
2018-09-06T12:56:39.757Z,29.21
2018-09-06T12:59:09.068Z,28.36
2018-09-06T13:01:38.216Z,26.86
2018-09-06T13:04:07.520Z,27.69
2018-09-06T13:06:36.730Z,27.61
2018-09-06T13:09:07.499Z,27.08
2018-09-06T13:11:37.226Z,27.23
2018-09-06T13:14:06.479Z,26.72
2018-09-06T13:16:35.810Z,26.48
2018-09-06T13:19:05.120Z,26.51
2018-09-06T13:21:34.451Z,26.44
2018-09-06T13:24:03.706Z,25.74
2018-09-06T13:26:32.828Z,24.85
2018-09-06T13:29:01.947Z,25.61
2018-09-06T13:31:31.104Z,25.82
2018-09-06T13:34:00.306Z,26.24
2018-09-06T13:36:29.392Z,26.25
2018-09-06T13:38:58.596Z,26.42
2018-09-06T13:41:27.797Z,27.07
2018-09-06T13:43:56.928Z,27.25
2018-09-06T13:46:26.120Z,27.19
2018-09-06T13:48:55.219Z,27.05
2018-09-06T13:51:24.400Z,26.59
2018-09-06T13:53:53.518Z,26.53
2018-09-06T13:56:22.713Z,26.41
2018-09-06T13:58:51.862Z,27.12
2018-09-06T14:01:21.033Z,26.41
2018-09-06T14:03:50.251Z,26.71
2018-09-06T14:06:19.373Z,26.94
2018-09-06T14:08:51.508Z,26.77
2018-09-06T14:11:20.727Z,26.26
2018-09-06T14:13:49.907Z,26.97
2018-09-06T14:16:19.072Z,26.83
2018-09-06T14:18:48.241Z,27.00
2018-09-06T14:21:17.529Z,27.90
2018-09-06T14:23:46.709Z,28.12
2018-09-06T14:26:15.870Z,27.69
2018-09-06T14:28:45.007Z,27.87
2018-09-06T14:31:15.951Z,27.76
2018-09-06T14:33:45.102Z,27.54
2018-09-06T14:36:14.279Z,27.36
2018-09-06T14:38:44.082Z,27.00
2018-09-06T14:41:13.175Z,27.84
2018-09-06T14:43:42.311Z,27.76
2018-09-06T14:46:11.426Z,28.17
2018-09-06T14:48:40.636Z,28.89
2018-09-06T14:51:09.742Z,29.12
2018-09-06T14:53:38.903Z,28.75
2018-09-06T14:56:08.690Z,28.85
2018-09-06T14:58:37.922Z,28.73
2018-09-06T15:01:07.408Z,28.93
2018-09-06T15:03:36.579Z,29.27
2018-09-06T15:06:05.785Z,29.51
2018-09-06T15:08:34.963Z,29.91
2018-09-06T15:11:04.139Z,29.88
2018-09-06T15:13:34.879Z,29.57
2018-09-06T15:16:04.158Z,30.01
2018-09-06T15:18:33.411Z,30.18
2018-09-06T15:21:02.591Z,29.44
2018-09-06T15:23:31.799Z,30.41
2018-09-06T15:26:01.038Z,29.88
2018-09-06T15:28:30.197Z,30.00
2018-09-06T15:30:59.396Z,30.47
2018-09-06T15:33:28.592Z,30.82
2018-09-06T15:35:57.762Z,31.02
2018-09-06T15:38:27.165Z,31.16
2018-09-06T15:40:56.749Z,30.83
2018-09-06T15:43:26.026Z,31.18
2018-09-06T15:45:57.210Z,31.33
2018-09-06T15:48:26.542Z,31.16
2018-09-06T15:50:55.912Z,31.35
2018-09-06T15:53:25.097Z,31.66
2018-09-06T15:55:54.303Z,31.48
2018-09-06T15:58:23.619Z,31.38
2018-09-06T16:00:52.776Z,31.09
2018-09-06T16:03:22.032Z,31.42
2018-09-06T16:05:51.284Z,31.92
2018-09-06T16:08:20.559Z,31.89
2018-09-06T16:10:50.922Z,32.60
2018-09-06T16:13:20.251Z,32.15
2018-09-06T16:15:49.410Z,32.44
2018-09-06T16:18:18.531Z,33.09
2018-09-06T16:20:47.672Z,32.50
2018-09-06T16:23:16.953Z,32.95
2018-09-06T16:25:47.855Z,33.42
2018-09-06T16:28:17.093Z,33.37
2018-09-06T16:30:46.243Z,33.23
2018-09-06T16:33:15.397Z,34.14
2018-09-06T16:35:44.568Z,33.97
2018-09-06T16:38:13.701Z,33.72
2018-09-06T16:40:42.852Z,33.86
2018-09-06T16:43:12.244Z,34.47
2018-09-06T16:45:41.555Z,34.49
2018-09-06T16:48:10.812Z,34.20
2018-09-06T16:50:40.043Z,34.89
2018-09-06T16:53:09.201Z,34.45
2018-09-06T16:55:40.209Z,34.84
2018-09-06T16:58:09.332Z,35.09
2018-09-06T17:00:38.568Z,35.12
2018-09-06T17:03:07.745Z,35.12
2018-09-06T17:05:36.953Z,35.17
2018-09-06T17:08:06.118Z,35.54
2018-09-06T17:10:35.296Z,35.62
2018-09-06T17:13:04.532Z,35.75
2018-09-06T17:15:33.706Z,36.14
2018-09-06T17:18:02.816Z,35.63
2018-09-06T17:20:32.075Z,35.97
2018-09-06T17:23:01.270Z,35.87
2018-09-06T17:25:30.429Z,36.33
2018-09-06T17:27:59.630Z,36.27
2018-09-06T17:30:28.781Z,36.46
2018-09-06T17:33:01.060Z,36.72
2018-09-06T17:35:30.150Z,37.19
2018-09-06T17:37:59.359Z,37.29
2018-09-06T17:40:28.516Z,36.87
2018-09-06T17:42:58.802Z,37.07
2018-09-06T17:45:27.994Z,37.36
2018-09-06T17:47:57.196Z,36.86
2018-09-06T17:50:26.338Z,37.18
2018-09-06T17:52:55.485Z,36.99
2018-09-06T17:55:24.623Z,36.99
2018-09-06T17:57:53.808Z,37.19
2018-09-06T18:00:22.940Z,36.97
2018-09-06T18:02:52.075Z,37.19
2018-09-06T18:05:22.484Z,36.65
2018-09-06T18:07:51.594Z,37.08
2018-09-06T18:10:20.766Z,36.74
2018-09-06T18:12:49.931Z,36.89
2018-09-06T18:15:19.031Z,36.78
2018-09-06T18:17:48.301Z,37.32
2018-09-06T18:20:17.274Z,37.32
2018-09-06T18:22:46.437Z,37.16
2018-09-06T18:25:15.585Z,36.96
2018-09-06T18:27:44.727Z,37.22
2018-09-06T18:30:13.990Z,37.17
2018-09-06T18:32:43.173Z,37.10
2018-09-06T18:35:12.409Z,37.39
2018-09-06T18:37:41.663Z,37.47
2018-09-06T18:40:10.813Z,37.70
2018-09-06T18:42:39.971Z,38.71
2018-09-06T18:45:09.290Z,38.69
2018-09-06T18:47:38.606Z,38.82
2018-09-06T18:50:07.886Z,39.54
2018-09-06T18:52:37.030Z,40.33
2018-09-06T18:55:06.242Z,39.46
2018-09-06T18:57:35.401Z,37.91
2018-09-06T19:00:04.570Z,37.60
2018-09-06T19:02:33.769Z,38.30
2018-09-06T19:05:03.035Z,38.24
2018-09-06T19:07:32.296Z,37.39
2018-09-06T19:10:01.567Z,37.68
2018-09-06T19:12:30.799Z,36.66
2018-09-06T19:14:59.966Z,36.62
2018-09-06T19:17:35.847Z,36.91
2018-09-06T19:20:05.426Z,36.88
2018-09-06T19:22:34.533Z,36.80
2018-09-06T19:25:03.717Z,36.73
2018-09-06T19:27:32.889Z,37.33
2018-09-06T19:30:01.977Z,37.50
2018-09-06T19:32:31.182Z,36.95
2018-09-06T19:35:00.435Z,37.41
2018-09-06T19:37:29.674Z,37.68
2018-09-06T19:39:58.907Z,37.75
2018-09-06T19:42:28.031Z,37.56
2018-09-06T19:44:57.249Z,37.94
2018-09-06T19:47:27.399Z,38.03
2018-09-06T19:49:56.613Z,38.13
2018-09-06T19:52:25.886Z,38.18
2018-09-06T19:54:55.015Z,37.70
2018-09-06T19:57:24.121Z,37.64
2018-09-06T19:59:53.324Z,38.10
2018-09-06T20:02:22.913Z,39.28
2018-09-06T20:04:52.078Z,39.99
2018-09-06T20:07:21.239Z,41.95
2018-09-06T20:09:50.451Z,42.96
2018-09-06T20:12:19.645Z,44.03
2018-09-06T20:14:48.977Z,43.99
2018-09-06T20:17:18.160Z,44.59
2018-09-06T20:19:47.276Z,45.88
2018-09-06T20:22:16.877Z,45.85
2018-09-06T20:24:46.181Z,46.24
2018-09-06T20:27:15.738Z,47.94
2018-09-06T20:29:45.077Z,48.32
2018-09-06T20:32:14.364Z,49.96
2018-09-06T20:34:43.770Z,50.32
2018-09-06T20:37:12.998Z,50.85
2018-09-06T20:39:42.190Z,51.73
2018-09-06T20:42:11.351Z,52.45
2018-09-06T20:44:40.542Z,52.49
2018-09-06T20:47:09.990Z,52.88
2018-09-06T20:49:39.177Z,52.56
2018-09-06T20:52:08.380Z,53.80
2018-09-06T20:54:37.534Z,55.50
2018-09-06T20:57:06.741Z,56.09
2018-09-06T20:59:36.013Z,56.64
2018-09-06T21:02:10.609Z,58.53
2018-09-06T21:04:40.739Z,59.69
2018-09-06T21:07:09.972Z,59.95
2018-09-06T21:09:39.162Z,61.66
2018-09-06T21:12:08.434Z,62.24
2018-09-06T21:14:37.675Z,61.92
2018-09-06T21:17:06.865Z,62.06
2018-09-06T21:19:38.329Z,62.76
2018-09-06T21:22:07.532Z,62.57
2018-09-06T21:24:36.827Z,62.60
2018-09-06T21:27:06.337Z,61.84
2018-09-06T21:29:35.558Z,61.51
2018-09-06T21:32:05.222Z,61.57
2018-09-06T21:34:34.969Z,61.59
2018-09-06T21:37:04.254Z,61.83
2018-09-06T21:39:33.425Z,61.81
2018-09-06T21:42:02.624Z,61.46
2018-09-06T21:44:31.889Z,61.61
2018-09-06T21:47:01.044Z,61.87
2018-09-06T21:49:30.329Z,62.23
2018-09-06T21:51:59.485Z,61.83
2018-09-06T21:54:28.682Z,62.45
2018-09-06T21:56:57.876Z,62.41
2018-09-06T21:59:27.063Z,63.15
2018-09-06T22:01:56.268Z,63.58
2018-09-06T22:04:25.478Z,63.90
2018-09-06T22:06:54.690Z,63.79
2018-09-06T22:09:23.932Z,64.00
2018-09-06T22:11:53.200Z,63.44
2018-09-06T22:14:22.376Z,63.88
2018-09-06T22:16:51.554Z,65.41
2018-09-06T22:19:20.685Z,64.91
2018-09-06T22:21:51.383Z,65.37
2018-09-06T22:24:20.556Z,65.24
2018-09-06T22:26:49.758Z,65.82
2018-09-06T22:29:18.999Z,65.78
2018-09-06T22:31:48.219Z,65.66
2018-09-06T22:34:17.434Z,65.60
2018-09-06T22:36:46.623Z,66.18
2018-09-06T22:39:15.969Z,65.88
2018-09-06T22:41:45.218Z,65.97
2018-09-06T22:44:17.358Z,65.35
2018-09-06T22:46:46.515Z,65.24
2018-09-06T22:49:15.700Z,65.31
2018-09-06T22:51:44.892Z,65.72
2018-09-06T22:54:14.106Z,66.31
2018-09-06T22:56:43.265Z,66.33
2018-09-06T22:59:12.465Z,65.87
2018-09-06T23:01:41.668Z,67.05
2018-09-06T23:04:10.860Z,66.79
2018-09-06T23:06:40.032Z,66.14
2018-09-06T23:09:09.570Z,66.67
2018-09-06T23:11:38.787Z,66.97
2018-09-06T23:14:08.052Z,66.57
2018-09-06T23:16:37.228Z,66.79
2018-09-06T23:19:06.561Z,66.95
2018-09-06T23:21:35.721Z,67.62
2018-09-06T23:24:04.857Z,68.03
2018-09-06T23:26:34.125Z,67.07
2018-09-06T23:29:03.454Z,67.94
2018-09-06T23:31:32.636Z,69.13
2018-09-06T23:34:01.774Z,69.85
2018-09-06T23:36:30.958Z,69.90
2018-09-06T23:39:00.134Z,69.77
2018-09-06T23:41:32.359Z,69.55
2018-09-06T23:44:01.542Z,69.96
2018-09-06T23:46:30.715Z,70.91
2018-09-06T23:48:59.971Z,71.03
2018-09-06T23:51:29.226Z,71.89
2018-09-06T23:53:58.372Z,71.92
2018-09-06T23:56:27.544Z,71.44
2018-09-06T23:58:56.749Z,71.72
